sensor_id;sensor_type;location;lat;lon;timestamp;P1;durP1;ratioP1;P2;durP2;ratioP2
50757;SDS011;36732;47.980;11.652;2022-10-16T00:00:57;2.35;;;0.80;;
50757;SDS011;36732;47.980;11.652;2022-10-16T00:03:23;3.25;;;0.77;;
50757;SDS011;36732;47.980;11.652;2022-10-16T00:05:48;2.03;;;0.88;;
50757;SDS011;36732;47.980;11.652;2022-10-16T00:08:14;2.00;;;0.82;;
50757;SDS011;36732;47.980;11.652;2022-10-16T00:10:40;1.75;;;1.10;;
50757;SDS011;36732;47.980;11.652;2022-10-16T00:13:06;3.15;;;0.85;;
50757;SDS011;36732;47.980;11.652;2022-10-16T00:15:34;2.13;;;0.90;;
50757;SDS011;36732;47.980;11.652;2022-10-16T00:18:04;1.60;;;0.77;;
50757;SDS011;36732;47.980;11.652;2022-10-16T00:20:30;0.75;;;0.60;;
50757;SDS011;36732;47.980;11.652;2022-10-16T00:22:59;1.88;;;0.90;;
50757;SDS011;36732;47.980;11.652;2022-10-16T00:25:25;2.28;;;1.23;;
50757;SDS011;36732;47.980;11.652;2022-10-16T00:27:51;1.77;;;0.60;;
50757;SDS011;36732;47.980;11.652;2022-10-16T00:30:17;1.58;;;0.98;;
50757;SDS011;36732;47.980;11.652;2022-10-16T00:32:42;1.30;;;0.77;;
50757;SDS011;36732;47.980;11.652;2022-10-16T00:35:08;1.70;;;0.90;;
50757;SDS011;36732;47.980;11.652;2022-10-16T00:37:34;1.35;;;0.80;;
50757;SDS011;36732;47.980;11.652;2022-10-16T00:39:59;4.00;;;1.00;;
50757;SDS011;36732;47.980;11.652;2022-10-16T00:42:25;1.30;;;0.88;;
50757;SDS011;36732;47.980;11.652;2022-10-16T00:44:52;2.65;;;0.70;;
50757;SDS011;36732;47.980;11.652;2022-10-16T00:47:29;1.35;;;0.80;;
50757;SDS011;36732;47.980;11.652;2022-10-16T00:50:18;2.55;;;1.20;;
50757;SDS011;36732;47.980;11.652;2022-10-16T00:52:52;2.00;;;1.15;;
50757;SDS011;36732;47.980;11.652;2022-10-16T00:55:20;2.58;;;1.10;;
50757;SDS011;36732;47.980;11.652;2022-10-16T00:57:46;5.15;;;0.90;;
50757;SDS011;36732;47.980;11.652;2022-10-16T01:00:15;2.30;;;0.90;;
50757;SDS011;36732;47.980;11.652;2022-10-16T01:02:56;3.72;;;0.80;;
50757;SDS011;36732;47.980;11.652;2022-10-16T01:05:36;1.30;;;0.80;;
50757;SDS011;36732;47.980;11.652;2022-10-16T01:08:18;2.15;;;0.65;;
50757;SDS011;36732;47.980;11.652;2022-10-16T01:11:06;1.75;;;0.80;;
50757;SDS011;36732;47.980;11.652;2022-10-16T01:13:47;3.35;;;0.85;;
50757;SDS011;36732;47.980;11.652;2022-10-16T01:16:28;1.03;;;0.93;;
50757;SDS011;36732;47.980;11.652;2022-10-16T01:21:47;1.60;;;0.80;;
50757;SDS011;36732;47.980;11.652;2022-10-16T01:29:53;1.20;;;0.77;;
50757;SDS011;36732;47.980;11.652;2022-10-16T01:32:39;2.15;;;0.52;;
50757;SDS011;36732;47.980;11.652;2022-10-16T01:35:16;5.88;;;0.93;;
50757;SDS011;36732;47.980;11.652;2022-10-16T01:37:55;2.17;;;1.15;;
50757;SDS011;36732;47.980;11.652;2022-10-16T01:40:32;2.03;;;0.60;;
50757;SDS011;36732;47.980;11.652;2022-10-16T01:43:03;3.50;;;1.17;;
50757;SDS011;36732;47.980;11.652;2022-10-16T01:49:15;1.60;;;0.93;;
50757;SDS011;36732;47.980;11.652;2022-10-16T01:51:43;3.40;;;0.95;;
50757;SDS011;36732;47.980;11.652;2022-10-16T01:54:12;2.10;;;1.35;;
50757;SDS011;36732;47.980;11.652;2022-10-16T01:56:41;3.58;;;0.80;;
50757;SDS011;36732;47.980;11.652;2022-10-16T01:59:12;4.35;;;1.02;;
50757;SDS011;36732;47.980;11.652;2022-10-16T02:01:42;2.95;;;0.82;;
50757;SDS011;36732;47.980;11.652;2022-10-16T02:04:18;3.15;;;0.90;;
50757;SDS011;36732;47.980;11.652;2022-10-16T02:07:12;4.75;;;0.80;;
50757;SDS011;36732;47.980;11.652;2022-10-16T02:09:39;1.98;;;1.08;;
50757;SDS011;36732;47.980;11.652;2022-10-16T02:12:39;4.72;;;1.10;;
50757;SDS011;36732;47.980;11.652;2022-10-16T02:14:58;3.53;;;1.20;;
50757;SDS011;36732;47.980;11.652;2022-10-16T02:17:24;2.40;;;1.08;;
50757;SDS011;36732;47.980;11.652;2022-10-16T02:19:51;10.43;;;1.92;;
50757;SDS011;36732;47.980;11.652;2022-10-16T02:22:27;2.67;;;0.93;;
50757;SDS011;36732;47.980;11.652;2022-10-16T02:25:11;2.70;;;1.33;;
50757;SDS011;36732;47.980;11.652;2022-10-16T02:30:51;1.80;;;0.90;;
50757;SDS011;36732;47.980;11.652;2022-10-16T02:33:27;2.65;;;0.90;;
50757;SDS011;36732;47.980;11.652;2022-10-16T02:35:55;2.97;;;1.00;;
50757;SDS011;36732;47.980;11.652;2022-10-16T02:38:22;8.27;;;1.05;;
50757;SDS011;36732;47.980;11.652;2022-10-16T02:40:49;3.60;;;0.70;;
50757;SDS011;36732;47.980;11.652;2022-10-16T02:43:16;3.08;;;0.73;;
50757;SDS011;36732;47.980;11.652;2022-10-16T02:45:42;3.17;;;0.98;;
50757;SDS011;36732;47.980;11.652;2022-10-16T02:48:08;1.17;;;0.90;;
50757;SDS011;36732;47.980;11.652;2022-10-16T02:50:33;3.72;;;0.95;;
50757;SDS011;36732;47.980;11.652;2022-10-16T02:52:59;6.15;;;1.10;;
50757;SDS011;36732;47.980;11.652;2022-10-16T02:55:25;7.10;;;1.60;;
50757;SDS011;36732;47.980;11.652;2022-10-16T02:57:52;3.22;;;0.90;;
50757;SDS011;36732;47.980;11.652;2022-10-16T03:00:19;2.90;;;0.82;;
50757;SDS011;36732;47.980;11.652;2022-10-16T03:02:45;3.33;;;0.70;;
50757;SDS011;36732;47.980;11.652;2022-10-16T03:05:12;1.95;;;1.00;;
50757;SDS011;36732;47.980;11.652;2022-10-16T03:07:39;3.38;;;0.88;;
50757;SDS011;36732;47.980;11.652;2022-10-16T03:10:05;5.43;;;1.25;;
50757;SDS011;36732;47.980;11.652;2022-10-16T03:12:31;5.15;;;1.10;;
50757;SDS011;36732;47.980;11.652;2022-10-16T03:14:57;3.03;;;0.88;;
50757;SDS011;36732;47.980;11.652;2022-10-16T03:17:24;2.42;;;0.90;;
50757;SDS011;36732;47.980;11.652;2022-10-16T03:19:50;1.20;;;0.82;;
50757;SDS011;36732;47.980;11.652;2022-10-16T03:22:15;1.67;;;0.90;;
50757;SDS011;36732;47.980;11.652;2022-10-16T03:24:41;1.35;;;1.00;;
50757;SDS011;36732;47.980;11.652;2022-10-16T03:27:07;4.15;;;0.93;;
50757;SDS011;36732;47.980;11.652;2022-10-16T03:29:33;4.65;;;0.95;;
50757;SDS011;36732;47.980;11.652;2022-10-16T03:31:59;4.88;;;0.90;;
50757;SDS011;36732;47.980;11.652;2022-10-16T03:34:25;2.30;;;0.90;;
50757;SDS011;36732;47.980;11.652;2022-10-16T03:36:51;2.95;;;0.70;;
50757;SDS011;36732;47.980;11.652;2022-10-16T03:39:17;5.82;;;0.95;;
50757;SDS011;36732;47.980;11.652;2022-10-16T03:41:43;2.95;;;0.80;;
50757;SDS011;36732;47.980;11.652;2022-10-16T03:44:11;1.75;;;0.80;;
50757;SDS011;36732;47.980;11.652;2022-10-16T03:46:37;5.95;;;1.25;;
50757;SDS011;36732;47.980;11.652;2022-10-16T03:49:03;2.30;;;0.95;;
50757;SDS011;36732;47.980;11.652;2022-10-16T03:51:28;0.85;;;0.70;;
50757;SDS011;36732;47.980;11.652;2022-10-16T03:53:54;2.40;;;1.00;;
50757;SDS011;36732;47.980;11.652;2022-10-16T03:56:20;4.55;;;1.10;;
50757;SDS011;36732;47.980;11.652;2022-10-16T03:58:46;3.30;;;1.02;;
50757;SDS011;36732;47.980;11.652;2022-10-16T04:01:11;2.58;;;1.23;;
50757;SDS011;36732;47.980;11.652;2022-10-16T04:03:37;6.03;;;1.38;;
50757;SDS011;36732;47.980;11.652;2022-10-16T04:06:03;1.50;;;1.00;;
50757;SDS011;36732;47.980;11.652;2022-10-16T04:08:29;1.60;;;0.93;;
50757;SDS011;36732;47.980;11.652;2022-10-16T04:10:54;3.65;;;0.93;;
50757;SDS011;36732;47.980;11.652;2022-10-16T04:13:20;4.20;;;1.20;;
50757;SDS011;36732;47.980;11.652;2022-10-16T04:15:46;2.58;;;0.80;;
50757;SDS011;36732;47.980;11.652;2022-10-16T04:18:12;2.40;;;1.38;;
50757;SDS011;36732;47.980;11.652;2022-10-16T04:20:38;2.45;;;0.77;;
50757;SDS011;36732;47.980;11.652;2022-10-16T04:23:03;4.88;;;0.88;;
50757;SDS011;36732;47.980;11.652;2022-10-16T04:25:29;3.33;;;1.42;;
50757;SDS011;36732;47.980;11.652;2022-10-16T04:27:55;1.48;;;1.20;;
50757;SDS011;36732;47.980;11.652;2022-10-16T04:30:21;4.20;;;1.83;;
50757;SDS011;36732;47.980;11.652;2022-10-16T04:32:48;1.52;;;1.30;;
50757;SDS011;36732;47.980;11.652;2022-10-16T04:35:17;1.77;;;0.85;;
50757;SDS011;36732;47.980;11.652;2022-10-16T04:37:44;5.07;;;1.10;;
50757;SDS011;36732;47.980;11.652;2022-10-16T04:40:10;2.35;;;0.95;;
50757;SDS011;36732;47.980;11.652;2022-10-16T04:42:36;3.33;;;0.93;;
50757;SDS011;36732;47.980;11.652;2022-10-16T04:45:03;5.60;;;1.60;;
50757;SDS011;36732;47.980;11.652;2022-10-16T04:47:30;2.65;;;1.00;;
50757;SDS011;36732;47.980;11.652;2022-10-16T04:49:56;4.50;;;0.77;;
50757;SDS011;36732;47.980;11.652;2022-10-16T04:52:22;0.77;;;0.63;;
50757;SDS011;36732;47.980;11.652;2022-10-16T04:54:49;1.65;;;0.93;;
50757;SDS011;36732;47.980;11.652;2022-10-16T04:57:16;5.13;;;0.90;;
50757;SDS011;36732;47.980;11.652;2022-10-16T04:59:42;2.50;;;1.10;;
50757;SDS011;36732;47.980;11.652;2022-10-16T05:02:08;1.10;;;0.95;;
50757;SDS011;36732;47.980;11.652;2022-10-16T05:04:33;1.80;;;1.25;;
50757;SDS011;36732;47.980;11.652;2022-10-16T05:06:59;4.20;;;1.05;;
50757;SDS011;36732;47.980;11.652;2022-10-16T05:09:25;2.05;;;1.48;;
50757;SDS011;36732;47.980;11.652;2022-10-16T05:11:51;2.10;;;1.25;;
50757;SDS011;36732;47.980;11.652;2022-10-16T05:14:16;1.48;;;1.10;;
50757;SDS011;36732;47.980;11.652;2022-10-16T05:16:42;2.17;;;1.13;;
50757;SDS011;36732;47.980;11.652;2022-10-16T05:19:08;2.88;;;1.23;;
50757;SDS011;36732;47.980;11.652;2022-10-16T05:21:34;5.30;;;1.48;;
50757;SDS011;36732;47.980;11.652;2022-10-16T05:23:59;3.35;;;1.23;;
50757;SDS011;36732;47.980;11.652;2022-10-16T05:26:25;7.53;;;1.80;;
50757;SDS011;36732;47.980;11.652;2022-10-16T05:28:51;6.63;;;1.70;;
50757;SDS011;36732;47.980;11.652;2022-10-16T05:31:16;2.38;;;1.27;;
50757;SDS011;36732;47.980;11.652;2022-10-16T05:33:42;4.03;;;1.13;;
50757;SDS011;36732;47.980;11.652;2022-10-16T05:36:09;2.10;;;1.13;;
50757;SDS011;36732;47.980;11.652;2022-10-16T05:38:35;1.88;;;0.82;;
50757;SDS011;36732;47.980;11.652;2022-10-16T05:41:02;2.13;;;0.73;;
50757;SDS011;36732;47.980;11.652;2022-10-16T05:43:30;1.20;;;0.93;;
50757;SDS011;36732;47.980;11.652;2022-10-16T05:46:00;1.60;;;0.90;;
50757;SDS011;36732;47.980;11.652;2022-10-16T05:48:30;7.13;;;0.80;;
50757;SDS011;36732;47.980;11.652;2022-10-16T05:51:07;3.88;;;1.08;;
50757;SDS011;36732;47.980;11.652;2022-10-16T05:53:35;2.75;;;1.00;;
50757;SDS011;36732;47.980;11.652;2022-10-16T05:56:03;1.75;;;1.10;;
50757;SDS011;36732;47.980;11.652;2022-10-16T05:58:33;2.45;;;0.63;;
50757;SDS011;36732;47.980;11.652;2022-10-16T06:01:02;3.00;;;1.00;;
50757;SDS011;36732;47.980;11.652;2022-10-16T06:03:32;5.07;;;1.05;;
50757;SDS011;36732;47.980;11.652;2022-10-16T06:05:58;1.48;;;1.10;;
50757;SDS011;36732;47.980;11.652;2022-10-16T06:08:24;4.93;;;0.90;;
50757;SDS011;36732;47.980;11.652;2022-10-16T06:11:00;1.10;;;1.00;;
50757;SDS011;36732;47.980;11.652;2022-10-16T06:13:27;1.45;;;0.90;;
50757;SDS011;36732;47.980;11.652;2022-10-16T06:15:53;2.60;;;1.08;;
50757;SDS011;36732;47.980;11.652;2022-10-16T06:18:23;2.80;;;1.02;;
50757;SDS011;36732;47.980;11.652;2022-10-16T06:20:49;1.30;;;1.17;;
50757;SDS011;36732;47.980;11.652;2022-10-16T06:23:15;1.50;;;1.20;;
50757;SDS011;36732;47.980;11.652;2022-10-16T06:25:41;1.33;;;1.23;;
50757;SDS011;36732;47.980;11.652;2022-10-16T06:28:07;4.63;;;1.15;;
50757;SDS011;36732;47.980;11.652;2022-10-16T06:30:32;1.25;;;0.98;;
50757;SDS011;36732;47.980;11.652;2022-10-16T06:32:58;3.60;;;1.67;;
50757;SDS011;36732;47.980;11.652;2022-10-16T06:35:24;3.88;;;1.23;;
50757;SDS011;36732;47.980;11.652;2022-10-16T06:37:49;3.95;;;1.30;;
50757;SDS011;36732;47.980;11.652;2022-10-16T06:40:15;4.72;;;1.40;;
50757;SDS011;36732;47.980;11.652;2022-10-16T06:42:41;1.85;;;1.50;;
50757;SDS011;36732;47.980;11.652;2022-10-16T06:45:07;3.13;;;1.27;;
50757;SDS011;36732;47.980;11.652;2022-10-16T06:47:33;3.25;;;1.13;;
50757;SDS011;36732;47.980;11.652;2022-10-16T06:49:59;2.60;;;1.20;;
50757;SDS011;36732;47.980;11.652;2022-10-16T06:52:27;1.50;;;1.10;;
50757;SDS011;36732;47.980;11.652;2022-10-16T06:54:53;3.70;;;1.02;;
50757;SDS011;36732;47.980;11.652;2022-10-16T06:57:18;3.58;;;1.25;;
50757;SDS011;36732;47.980;11.652;2022-10-16T06:59:44;2.38;;;1.20;;
50757;SDS011;36732;47.980;11.652;2022-10-16T07:02:10;4.13;;;1.73;;
50757;SDS011;36732;47.980;11.652;2022-10-16T07:04:36;2.72;;;1.50;;
50757;SDS011;36732;47.980;11.652;2022-10-16T07:07:02;3.47;;;1.50;;
50757;SDS011;36732;47.980;11.652;2022-10-16T07:09:27;2.05;;;1.10;;
50757;SDS011;36732;47.980;11.652;2022-10-16T07:11:53;2.10;;;1.40;;
50757;SDS011;36732;47.980;11.652;2022-10-16T07:14:19;2.30;;;1.38;;
50757;SDS011;36732;47.980;11.652;2022-10-16T07:16:46;2.03;;;1.60;;
50757;SDS011;36732;47.980;11.652;2022-10-16T07:19:13;2.08;;;1.75;;
50757;SDS011;36732;47.980;11.652;2022-10-16T07:21:41;5.90;;;1.38;;
50757;SDS011;36732;47.980;11.652;2022-10-16T07:24:10;4.05;;;1.60;;
50757;SDS011;36732;47.980;11.652;2022-10-16T07:26:39;3.00;;;1.42;;
50757;SDS011;36732;47.980;11.652;2022-10-16T07:29:13;2.60;;;1.10;;
50757;SDS011;36732;47.980;11.652;2022-10-16T07:31:42;2.97;;;1.33;;
50757;SDS011;36732;47.980;11.652;2022-10-16T07:34:09;2.00;;;1.38;;
50757;SDS011;36732;47.980;11.652;2022-10-16T07:36:37;2.47;;;1.30;;
50757;SDS011;36732;47.980;11.652;2022-10-16T07:39:03;1.38;;;1.25;;
50757;SDS011;36732;47.980;11.652;2022-10-16T07:41:28;3.95;;;1.30;;
50757;SDS011;36732;47.980;11.652;2022-10-16T07:43:55;1.77;;;1.30;;
50757;SDS011;36732;47.980;11.652;2022-10-16T07:46:24;1.23;;;1.13;;
50757;SDS011;36732;47.980;11.652;2022-10-16T07:48:51;2.10;;;1.13;;
50757;SDS011;36732;47.980;11.652;2022-10-16T07:51:18;1.58;;;1.30;;
50757;SDS011;36732;47.980;11.652;2022-10-16T07:53:46;3.33;;;1.40;;
50757;SDS011;36732;47.980;11.652;2022-10-16T07:56:12;1.70;;;1.40;;
50757;SDS011;36732;47.980;11.652;2022-10-16T07:58:39;1.50;;;1.00;;
50757;SDS011;36732;47.980;11.652;2022-10-16T08:01:08;1.63;;;1.20;;
50757;SDS011;36732;47.980;11.652;2022-10-16T08:03:37;1.52;;;1.23;;
50757;SDS011;36732;47.980;11.652;2022-10-16T08:06:06;3.83;;;1.42;;
50757;SDS011;36732;47.980;11.652;2022-10-16T08:08:31;1.73;;;1.38;;
50757;SDS011;36732;47.980;11.652;2022-10-16T08:10:57;3.00;;;2.70;;
50757;SDS011;36732;47.980;11.652;2022-10-16T08:13:23;5.15;;;3.10;;
50757;SDS011;36732;47.980;11.652;2022-10-16T08:15:49;5.53;;;3.72;;
50757;SDS011;36732;47.980;11.652;2022-10-16T08:18:15;4.78;;;2.88;;
50757;SDS011;36732;47.980;11.652;2022-10-16T08:20:41;2.83;;;2.22;;
50757;SDS011;36732;47.980;11.652;2022-10-16T08:23:08;3.45;;;2.35;;
50757;SDS011;36732;47.980;11.652;2022-10-16T08:25:36;2.38;;;1.70;;
50757;SDS011;36732;47.980;11.652;2022-10-16T08:28:03;1.55;;;1.17;;
50757;SDS011;36732;47.980;11.652;2022-10-16T08:30:30;1.40;;;1.10;;
50757;SDS011;36732;47.980;11.652;2022-10-16T08:32:57;2.10;;;0.85;;
50757;SDS011;36732;47.980;11.652;2022-10-16T08:35:23;1.58;;;1.42;;
50757;SDS011;36732;47.980;11.652;2022-10-16T08:37:49;0.90;;;0.85;;
50757;SDS011;36732;47.980;11.652;2022-10-16T08:40:19;2.85;;;1.38;;
50757;SDS011;36732;47.980;11.652;2022-10-16T08:51:09;1.33;;;1.10;;
50757;SDS011;36732;47.980;11.652;2022-10-16T08:56:29;1.55;;;1.23;;
50757;SDS011;36732;47.980;11.652;2022-10-16T08:58:56;4.25;;;1.30;;
50757;SDS011;36732;47.980;11.652;2022-10-16T09:01:24;2.97;;;1.52;;
50757;SDS011;36732;47.980;11.652;2022-10-16T09:10:00;1.30;;;1.20;;
50757;SDS011;36732;47.980;11.652;2022-10-16T09:15:20;1.50;;;1.10;;
50757;SDS011;36732;47.980;11.652;2022-10-16T09:21:16;1.30;;;1.15;;
50757;SDS011;36732;47.980;11.652;2022-10-16T09:23:47;4.50;;;1.40;;
50757;SDS011;36732;47.980;11.652;2022-10-16T09:26:13;1.40;;;1.30;;
50757;SDS011;36732;47.980;11.652;2022-10-16T09:28:41;1.73;;;1.10;;
50757;SDS011;36732;47.980;11.652;2022-10-16T09:31:15;2.05;;;1.13;;
50757;SDS011;36732;47.980;11.652;2022-10-16T09:33:45;0.93;;;0.90;;
50757;SDS011;36732;47.980;11.652;2022-10-16T09:36:18;1.20;;;0.93;;
50757;SDS011;36732;47.980;11.652;2022-10-16T09:38:45;1.30;;;1.20;;
50757;SDS011;36732;47.980;11.652;2022-10-16T09:41:20;3.47;;;1.40;;
50757;SDS011;36732;47.980;11.652;2022-10-16T09:43:49;2.00;;;1.40;;
50757;SDS011;36732;47.980;11.652;2022-10-16T09:49:05;1.30;;;1.20;;
50757;SDS011;36732;47.980;11.652;2022-10-16T09:51:49;2.30;;;1.33;;
50757;SDS011;36732;47.980;11.652;2022-10-16T09:54:19;1.83;;;1.20;;
50757;SDS011;36732;47.980;11.652;2022-10-16T09:56:46;1.30;;;1.20;;
50757;SDS011;36732;47.980;11.652;2022-10-16T09:59:19;1.85;;;1.38;;
50757;SDS011;36732;47.980;11.652;2022-10-16T10:01:52;3.55;;;1.15;;
50757;SDS011;36732;47.980;11.652;2022-10-16T10:04:20;1.85;;;1.48;;
50757;SDS011;36732;47.980;11.652;2022-10-16T10:06:56;6.97;;;1.60;;
50757;SDS011;36732;47.980;11.652;2022-10-16T10:09:24;2.20;;;1.20;;
50757;SDS011;36732;47.980;11.652;2022-10-16T10:12:03;1.73;;;1.05;;
50757;SDS011;36732;47.980;11.652;2022-10-16T10:14:47;1.63;;;1.20;;
50757;SDS011;36732;47.980;11.652;2022-10-16T10:20:00;2.95;;;1.17;;
50757;SDS011;36732;47.980;11.652;2022-10-16T10:22:47;1.05;;;1.00;;
50757;SDS011;36732;47.980;11.652;2022-10-16T10:33:41;2.97;;;1.10;;
50757;SDS011;36732;47.980;11.652;2022-10-16T10:45:28;2.60;;;1.40;;
50757;SDS011;36732;47.980;11.652;2022-10-16T11:36:32;0.43;;;0.43;;
50757;SDS011;36732;47.980;11.652;2022-10-16T11:39:26;2.28;;;0.65;;
50757;SDS011;36732;47.980;11.652;2022-10-16T11:41:55;1.50;;;0.60;;
50757;SDS011;36732;47.980;11.652;2022-10-16T11:49:52;0.90;;;0.60;;
50757;SDS011;36732;47.980;11.652;2022-10-16T11:55:39;0.90;;;0.45;;
50757;SDS011;36732;47.980;11.652;2022-10-16T11:58:16;0.40;;;0.40;;
50757;SDS011;36732;47.980;11.652;2022-10-16T12:03:59;2.30;;;0.70;;
50757;SDS011;36732;47.980;11.652;2022-10-16T12:06:39;2.80;;;0.63;;
50757;SDS011;36732;47.980;11.652;2022-10-16T12:09:13;0.52;;;0.40;;
50757;SDS011;36732;47.980;11.652;2022-10-16T12:11:47;4.68;;;0.60;;
50757;SDS011;36732;47.980;11.652;2022-10-16T12:22:41;0.73;;;0.45;;
50757;SDS011;36732;47.980;11.652;2022-10-16T12:25:26;1.45;;;0.50;;
50757;SDS011;36732;47.980;11.652;2022-10-16T12:28:04;0.60;;;0.50;;
50757;SDS011;36732;47.980;11.652;2022-10-16T12:30:40;0.90;;;0.45;;
50757;SDS011;36732;47.980;11.652;2022-10-16T12:36:26;0.60;;;0.50;;
50757;SDS011;36732;47.980;11.652;2022-10-16T12:41:33;3.42;;;0.50;;
50757;SDS011;36732;47.980;11.652;2022-10-16T12:44:02;0.60;;;0.43;;
50757;SDS011;36732;47.980;11.652;2022-10-16T12:49:04;0.98;;;0.60;;
50757;SDS011;36732;47.980;11.652;2022-10-16T12:51:41;2.42;;;0.80;;
50757;SDS011;36732;47.980;11.652;2022-10-16T12:59:32;1.50;;;0.60;;
50757;SDS011;36732;47.980;11.652;2022-10-16T13:08:18;1.13;;;0.88;;
50757;SDS011;36732;47.980;11.652;2022-10-16T13:19:51;2.42;;;1.00;;
50757;SDS011;36732;47.980;11.652;2022-10-16T13:22:45;1.77;;;1.60;;
50757;SDS011;36732;47.980;11.652;2022-10-16T13:28:28;2.28;;;1.60;;
50757;SDS011;36732;47.980;11.652;2022-10-16T13:30:58;1.23;;;1.10;;
50757;SDS011;36732;47.980;11.652;2022-10-16T13:36:04;2.05;;;0.80;;
50757;SDS011;36732;47.980;11.652;2022-10-16T13:38:31;0.50;;;0.50;;
50757;SDS011;36732;47.980;11.652;2022-10-16T13:41:01;0.60;;;0.52;;
50757;SDS011;36732;47.980;11.652;2022-10-16T13:43:31;0.63;;;0.60;;
50757;SDS011;36732;47.980;11.652;2022-10-16T13:46:06;0.90;;;0.65;;
50757;SDS011;36732;47.980;11.652;2022-10-16T13:48:37;1.67;;;0.70;;
50757;SDS011;36732;47.980;11.652;2022-10-16T13:53:33;0.70;;;0.60;;
50757;SDS011;36732;47.980;11.652;2022-10-16T13:56:01;0.82;;;0.50;;
50757;SDS011;36732;47.980;11.652;2022-10-16T13:58:29;1.23;;;0.70;;
50757;SDS011;36732;47.980;11.652;2022-10-16T14:00:58;0.82;;;0.60;;
50757;SDS011;36732;47.980;11.652;2022-10-16T14:03:40;1.75;;;0.57;;
50757;SDS011;36732;47.980;11.652;2022-10-16T14:06:11;2.70;;;0.70;;
50757;SDS011;36732;47.980;11.652;2022-10-16T14:08:48;2.30;;;0.52;;
50757;SDS011;36732;47.980;11.652;2022-10-16T14:11:30;1.17;;;0.68;;
50757;SDS011;36732;47.980;11.652;2022-10-16T14:13:57;0.68;;;0.57;;
50757;SDS011;36732;47.980;11.652;2022-10-16T14:16:23;1.30;;;0.80;;
50757;SDS011;36732;47.980;11.652;2022-10-16T14:18:59;0.93;;;0.60;;
50757;SDS011;36732;47.980;11.652;2022-10-16T14:21:28;0.47;;;0.47;;
50757;SDS011;36732;47.980;11.652;2022-10-16T14:23:55;0.95;;;0.52;;
50757;SDS011;36732;47.980;11.652;2022-10-16T14:26:25;0.85;;;0.50;;
50757;SDS011;36732;47.980;11.652;2022-10-16T14:29:04;1.05;;;0.63;;
50757;SDS011;36732;47.980;11.652;2022-10-16T14:31:53;4.07;;;0.80;;
50757;SDS011;36732;47.980;11.652;2022-10-16T14:37:40;1.10;;;0.57;;
50757;SDS011;36732;47.980;11.652;2022-10-16T14:39:53;0.85;;;0.68;;
50757;SDS011;36732;47.980;11.652;2022-10-16T14:42:22;0.73;;;0.60;;
50757;SDS011;36732;47.980;11.652;2022-10-16T14:44:50;3.13;;;0.60;;
50757;SDS011;36732;47.980;11.652;2022-10-16T14:47:19;0.70;;;0.63;;
50757;SDS011;36732;47.980;11.652;2022-10-16T14:49:50;5.47;;;1.10;;
50757;SDS011;36732;47.980;11.652;2022-10-16T14:52:17;0.60;;;0.60;;
50757;SDS011;36732;47.980;11.652;2022-10-16T14:54:42;0.65;;;0.50;;
50757;SDS011;36732;47.980;11.652;2022-10-16T14:57:16;1.48;;;0.60;;
50757;SDS011;36732;47.980;11.652;2022-10-16T14:59:47;1.25;;;0.50;;
50757;SDS011;36732;47.980;11.652;2022-10-16T15:05:07;0.98;;;0.68;;
50757;SDS011;36732;47.980;11.652;2022-10-16T15:07:42;0.98;;;0.60;;
50757;SDS011;36732;47.980;11.652;2022-10-16T15:10:09;1.35;;;0.80;;
50757;SDS011;36732;47.980;11.652;2022-10-16T15:12:35;0.70;;;0.57;;
50757;SDS011;36732;47.980;11.652;2022-10-16T15:15:01;0.52;;;0.52;;
50757;SDS011;36732;47.980;11.652;2022-10-16T15:17:33;1.27;;;0.90;;
50757;SDS011;36732;47.980;11.652;2022-10-16T15:19:59;1.08;;;0.50;;
50757;SDS011;36732;47.980;11.652;2022-10-16T15:22:24;2.08;;;0.90;;
50757;SDS011;36732;47.980;11.652;2022-10-16T15:24:50;1.40;;;0.80;;
50757;SDS011;36732;47.980;11.652;2022-10-16T15:27:16;3.50;;;0.80;;
50757;SDS011;36732;47.980;11.652;2022-10-16T15:29:41;1.10;;;1.00;;
50757;SDS011;36732;47.980;11.652;2022-10-16T15:32:08;1.75;;;1.40;;
50757;SDS011;36732;47.980;11.652;2022-10-16T15:34:35;1.90;;;1.10;;
50757;SDS011;36732;47.980;11.652;2022-10-16T15:37:04;1.73;;;1.10;;
50757;SDS011;36732;47.980;11.652;2022-10-16T15:39:29;3.90;;;1.60;;
50757;SDS011;36732;47.980;11.652;2022-10-16T15:41:55;5.78;;;1.40;;
50757;SDS011;36732;47.980;11.652;2022-10-16T15:44:21;3.40;;;1.70;;
50757;SDS011;36732;47.980;11.652;2022-10-16T15:46:48;7.30;;;1.63;;
50757;SDS011;36732;47.980;11.652;2022-10-16T15:49:14;6.10;;;1.80;;
50757;SDS011;36732;47.980;11.652;2022-10-16T15:51:40;8.00;;;2.30;;
50757;SDS011;36732;47.980;11.652;2022-10-16T15:54:07;2.17;;;1.95;;
50757;SDS011;36732;47.980;11.652;2022-10-16T15:56:33;2.33;;;1.50;;
50757;SDS011;36732;47.980;11.652;2022-10-16T15:59:01;2.85;;;1.70;;
50757;SDS011;36732;47.980;11.652;2022-10-16T16:01:28;2.40;;;1.67;;
50757;SDS011;36732;47.980;11.652;2022-10-16T16:03:59;3.85;;;1.45;;
50757;SDS011;36732;47.980;11.652;2022-10-16T16:06:24;3.53;;;1.30;;
50757;SDS011;36732;47.980;11.652;2022-10-16T16:08:51;2.63;;;1.08;;
50757;SDS011;36732;47.980;11.652;2022-10-16T16:11:17;4.57;;;2.10;;
50757;SDS011;36732;47.980;11.652;2022-10-16T16:13:44;8.63;;;2.67;;
50757;SDS011;36732;47.980;11.652;2022-10-16T16:16:10;5.25;;;2.58;;
50757;SDS011;36732;47.980;11.652;2022-10-16T16:18:41;13.88;;;3.72;;
50757;SDS011;36732;47.980;11.652;2022-10-16T16:21:09;14.45;;;4.07;;
50757;SDS011;36732;47.980;11.652;2022-10-16T16:23:36;13.52;;;5.03;;
50757;SDS011;36732;47.980;11.652;2022-10-16T16:26:15;16.95;;;6.57;;
50757;SDS011;36732;47.980;11.652;2022-10-16T16:28:52;14.50;;;6.13;;
50757;SDS011;36732;47.980;11.652;2022-10-16T16:31:19;24.60;;;9.00;;
50757;SDS011;36732;47.980;11.652;2022-10-16T16:33:46;19.73;;;9.27;;
50757;SDS011;36732;47.980;11.652;2022-10-16T16:36:12;13.52;;;8.70;;
50757;SDS011;36732;47.980;11.652;2022-10-16T16:38:38;14.00;;;7.60;;
50757;SDS011;36732;47.980;11.652;2022-10-16T16:41:10;14.30;;;6.60;;
50757;SDS011;36732;47.980;11.652;2022-10-16T16:43:40;8.35;;;5.72;;
50757;SDS011;36732;47.980;11.652;2022-10-16T16:46:06;7.00;;;4.22;;
50757;SDS011;36732;47.980;11.652;2022-10-16T16:48:32;9.65;;;3.85;;
50757;SDS011;36732;47.980;11.652;2022-10-16T16:51:07;11.85;;;4.30;;
50757;SDS011;36732;47.980;11.652;2022-10-16T16:53:40;13.73;;;2.90;;
50757;SDS011;36732;47.980;11.652;2022-10-16T16:56:07;14.48;;;2.85;;
50757;SDS011;36732;47.980;11.652;2022-10-16T16:58:33;5.18;;;2.25;;
50757;SDS011;36732;47.980;11.652;2022-10-16T17:01:00;7.78;;;2.35;;
50757;SDS011;36732;47.980;11.652;2022-10-16T17:03:33;13.43;;;2.47;;
50757;SDS011;36732;47.980;11.652;2022-10-16T17:06:01;4.60;;;1.88;;
50757;SDS011;36732;47.980;11.652;2022-10-16T17:08:33;8.38;;;1.63;;
50757;SDS011;36732;47.980;11.652;2022-10-16T17:11:00;15.70;;;2.70;;
50757;SDS011;36732;47.980;11.652;2022-10-16T17:13:27;10.35;;;2.83;;
50757;SDS011;36732;47.980;11.652;2022-10-16T17:15:55;6.85;;;2.35;;
50757;SDS011;36732;47.980;11.652;2022-10-16T17:18:22;4.63;;;2.20;;
50757;SDS011;36732;47.980;11.652;2022-10-16T17:20:49;5.28;;;2.00;;
50757;SDS011;36732;47.980;11.652;2022-10-16T17:23:16;8.18;;;2.58;;
50757;SDS011;36732;47.980;11.652;2022-10-16T17:25:43;7.90;;;3.25;;
50757;SDS011;36732;47.980;11.652;2022-10-16T17:28:10;10.45;;;4.40;;
50757;SDS011;36732;47.980;11.652;2022-10-16T17:30:38;13.27;;;6.30;;
50757;SDS011;36732;47.980;11.652;2022-10-16T17:33:07;9.73;;;5.38;;
50757;SDS011;36732;47.980;11.652;2022-10-16T17:38:09;15.63;;;5.10;;
50757;SDS011;36732;47.980;11.652;2022-10-16T17:40:36;9.63;;;6.95;;